createdAt,value
2023-07-09T00:02:16.838Z,6.80
2023-07-09T00:07:34.228Z,7.17
2023-07-09T00:12:36.741Z,6.63
2023-07-09T00:17:40.953Z,6.80
2023-07-09T00:22:53.040Z,6.80
2023-07-09T00:27:55.532Z,7.00
2023-07-09T00:32:59.564Z,6.77
2023-07-09T00:38:02.088Z,7.50
2023-07-09T00:43:15.909Z,7.23
2023-07-09T00:48:18.921Z,6.67
2023-07-09T00:53:30.787Z,6.70
2023-07-09T00:58:36.320Z,6.73
2023-07-09T01:03:50.496Z,6.70
2023-07-09T01:08:54.613Z,6.73
2023-07-09T01:14:02.217Z,7.03
2023-07-09T01:19:06.892Z,6.90
2023-07-09T01:24:47.830Z,6.30
2023-07-09T01:29:51.028Z,7.30
2023-07-09T01:34:57.031Z,6.93
2023-07-09T01:39:59.483Z,6.50
2023-07-09T01:45:05.266Z,7.23
2023-07-09T01:50:09.102Z,7.33
2023-07-09T01:55:14.388Z,7.40
2023-07-09T02:00:17.729Z,6.33
2023-07-09T02:05:21.032Z,6.83
2023-07-09T02:10:23.703Z,7.07
2023-07-09T02:15:26.484Z,6.97
2023-07-09T02:20:28.983Z,7.00
2023-07-09T02:25:31.478Z,7.60
2023-07-09T02:30:33.962Z,6.77
2023-07-09T02:35:37.295Z,6.87
2023-07-09T02:40:40.325Z,6.93
2023-07-09T02:45:42.804Z,6.63
2023-07-09T02:50:45.241Z,6.83
2023-07-09T02:55:47.792Z,7.13
2023-07-09T03:00:54.038Z,6.97
2023-07-09T03:05:56.642Z,7.40
2023-07-09T03:10:59.595Z,6.80
2023-07-09T03:16:02.392Z,6.90
2023-07-09T03:21:05.433Z,6.90
2023-07-09T03:26:07.930Z,6.80
2023-07-09T03:31:10.749Z,6.87
2023-07-09T03:36:13.740Z,6.87
2023-07-09T03:41:16.690Z,7.67
2023-07-09T03:46:19.231Z,7.30
2023-07-09T03:51:21.652Z,8.47
2023-07-09T03:56:24.486Z,9.00
2023-07-09T04:01:27.140Z,9.03
2023-07-09T04:06:30.069Z,7.97
2023-07-09T04:11:32.500Z,7.83
2023-07-09T04:16:34.991Z,6.83
2023-07-09T04:21:37.502Z,6.60
2023-07-09T04:26:40.195Z,6.60
2023-07-09T04:31:42.798Z,6.40
2023-07-09T04:36:45.591Z,6.57
2023-07-09T04:41:48.592Z,5.70
2023-07-09T04:46:51.125Z,5.23
2023-07-09T04:51:53.517Z,5.32
2023-07-09T04:56:57.198Z,5.65
2023-07-09T05:02:00.278Z,6.05
2023-07-09T05:07:02.800Z,5.38
2023-07-09T05:12:05.717Z,5.03
2023-07-09T05:17:09.032Z,5.57
2023-07-09T05:22:11.551Z,5.18
2023-07-09T05:27:13.953Z,5.57
2023-07-09T05:32:16.355Z,5.38
2023-07-09T05:37:18.990Z,5.30
2023-07-09T05:42:21.527Z,5.85
2023-07-09T05:47:24.257Z,4.53
2023-07-09T05:52:26.883Z,4.70
2023-07-09T05:57:29.337Z,4.75
2023-07-09T06:02:31.926Z,4.85
2023-07-09T06:07:34.408Z,5.38
2023-07-09T06:12:37.389Z,4.30
2023-07-09T06:17:40.004Z,4.90
2023-07-09T06:22:42.579Z,4.68
2023-07-09T06:27:44.990Z,4.75
2023-07-09T06:32:47.629Z,4.20
2023-07-09T06:37:50.372Z,5.35
2023-07-09T06:42:52.892Z,4.18
2023-07-09T06:48:02.644Z,5.03
2023-07-09T06:53:05.125Z,4.00
2023-07-09T06:58:07.836Z,4.47
2023-07-09T07:03:10.865Z,4.13
2023-07-09T07:08:17.132Z,4.40
2023-07-09T07:13:19.552Z,4.40
2023-07-09T07:18:22.112Z,4.13
2023-07-09T07:23:25.258Z,4.32
2023-07-09T07:28:27.772Z,4.07
2023-07-09T07:33:30.409Z,3.85
2023-07-09T07:38:33.247Z,3.92
2023-07-09T07:43:35.711Z,4.05
2023-07-09T07:48:38.170Z,4.20
2023-07-09T07:53:40.692Z,3.97
2023-07-09T07:58:43.114Z,3.55
2023-07-09T08:03:45.588Z,3.75
2023-07-09T08:08:48.334Z,3.72
2023-07-09T08:13:51.275Z,3.55
2023-07-09T08:18:53.851Z,3.63
2023-07-09T08:23:56.403Z,3.13
2023-07-09T08:28:58.845Z,3.42
2023-07-09T08:34:01.258Z,3.70
2023-07-09T08:39:07.765Z,3.33
2023-07-09T08:44:32.605Z,3.40
2023-07-09T08:50:06.595Z,2.90
2023-07-09T08:55:26.268Z,3.17
2023-07-09T09:00:43.267Z,3.20
2023-07-09T09:05:50.868Z,2.90
2023-07-09T09:11:16.045Z,2.97
2023-07-09T09:16:32.413Z,2.45
2023-07-09T09:21:37.951Z,2.85
2023-07-09T09:26:47.969Z,3.00
2023-07-09T09:31:56.377Z,2.65
2023-07-09T09:37:00.166Z,2.95
2023-07-09T09:42:02.865Z,2.70
2023-07-09T09:47:05.775Z,2.78
2023-07-09T09:52:19.551Z,3.28
2023-07-09T09:57:24.626Z,2.58
2023-07-09T10:02:27.169Z,2.53
2023-07-09T10:07:37.670Z,2.63
2023-07-09T10:12:56.259Z,2.80
2023-07-09T10:18:38.583Z,2.80
2023-07-09T10:24:09.898Z,2.33
2023-07-09T10:29:21.326Z,2.70
2023-07-09T10:34:30.152Z,2.60
2023-07-09T10:39:40.077Z,2.60
2023-07-09T10:44:47.933Z,2.47
2023-07-09T10:49:51.589Z,2.53
2023-07-09T10:55:01.949Z,2.30
2023-07-09T11:00:05.171Z,2.50
2023-07-09T11:05:11.424Z,2.42
2023-07-09T11:10:28.524Z,2.03
2023-07-09T11:15:36.151Z,2.20
2023-07-09T11:20:45.343Z,2.30
2023-07-09T11:26:09.121Z,2.42
2023-07-09T11:31:39.928Z,2.33
2023-07-09T11:36:56.419Z,2.50
2023-07-09T11:41:59.431Z,2.45
2023-07-09T11:47:20.397Z,2.30
2023-07-09T11:52:51.630Z,2.65
2023-07-09T11:58:05.139Z,1.88
2023-07-09T12:03:18.201Z,2.00
2023-07-09T12:08:30.085Z,1.60
2023-07-09T12:13:40.111Z,1.30
2023-07-09T12:18:44.664Z,1.48
2023-07-09T12:23:47.695Z,1.23
2023-07-09T12:28:54.957Z,1.40
2023-07-09T12:33:59.409Z,1.40
2023-07-09T12:39:04.066Z,1.50
2023-07-09T12:44:09.527Z,1.30
2023-07-09T12:49:26.613Z,1.10
2023-07-09T12:54:30.607Z,0.90
2023-07-09T12:59:41.133Z,1.30
2023-07-09T13:04:44.030Z,1.40
2023-07-09T13:09:53.926Z,1.48
2023-07-09T13:15:00.184Z,1.10
2023-07-09T13:20:03.300Z,1.50
2023-07-09T13:25:08.373Z,1.45
2023-07-09T13:30:11.155Z,1.23
2023-07-09T13:35:19.698Z,1.35
2023-07-09T13:40:22.163Z,1.63
2023-07-09T13:45:26.312Z,1.48
2023-07-09T13:50:29.048Z,1.60
2023-07-09T13:55:31.502Z,1.90
2023-07-09T14:00:34.073Z,1.40
2023-07-09T14:05:36.578Z,1.35
2023-07-09T14:10:39.614Z,1.50
2023-07-09T14:15:42.237Z,1.58
2023-07-09T14:20:45.395Z,1.52
2023-07-09T14:25:48.687Z,1.50
2023-07-09T14:30:52.152Z,1.55
2023-07-09T14:35:54.756Z,1.75
2023-07-09T14:41:00.962Z,1.40
2023-07-09T14:46:03.689Z,2.10
2023-07-09T14:51:15.971Z,1.63
2023-07-09T14:56:18.529Z,1.45
2023-07-09T15:01:22.456Z,1.65
2023-07-09T15:06:24.941Z,1.52
2023-07-09T15:11:27.399Z,1.80
2023-07-09T15:16:29.959Z,1.75
2023-07-09T15:21:32.499Z,2.03
2023-07-09T15:26:34.961Z,1.70
2023-07-09T15:31:37.443Z,1.67
2023-07-09T15:36:40.177Z,1.70
2023-07-09T15:41:42.980Z,1.92
2023-07-09T15:46:55.441Z,2.03
2023-07-09T15:51:58.882Z,1.63
2023-07-09T15:57:01.938Z,1.98
2023-07-09T16:02:15.367Z,1.92
2023-07-09T16:07:17.936Z,2.45
2023-07-09T16:12:20.484Z,1.88
2023-07-09T16:17:23.010Z,2.20
2023-07-09T16:22:25.524Z,1.80
2023-07-09T16:27:28.128Z,2.00
2023-07-09T16:32:30.582Z,2.00
2023-07-09T16:37:33.020Z,2.33
2023-07-09T16:42:36.024Z,2.05
2023-07-09T16:47:38.558Z,2.22
2023-07-09T16:52:41.596Z,2.05
2023-07-09T16:57:44.253Z,1.95
2023-07-09T17:02:46.916Z,2.30
2023-07-09T17:07:49.514Z,2.10
2023-07-09T17:12:58.699Z,2.30
2023-07-09T17:18:01.982Z,2.03
2023-07-09T17:23:04.510Z,2.22
2023-07-09T17:28:22.403Z,2.45
2023-07-09T17:33:25.215Z,2.20
2023-07-09T17:38:35.127Z,2.45
2023-07-09T17:43:39.168Z,2.35
2023-07-09T17:48:43.614Z,2.70
2023-07-09T17:53:46.268Z,3.20
2023-07-09T17:58:49.153Z,2.47
2023-07-09T18:03:51.696Z,3.38
2023-07-09T18:08:54.161Z,2.58
2023-07-09T18:13:56.935Z,2.50
2023-07-09T18:19:04.592Z,3.83
2023-07-09T18:24:07.085Z,3.55
2023-07-09T18:29:23.942Z,3.45
2023-07-09T18:34:26.365Z,3.28
2023-07-09T18:39:28.771Z,2.85
2023-07-09T18:44:31.323Z,8.90
2023-07-09T18:49:33.741Z,4.90
2023-07-09T18:54:36.283Z,4.40
2023-07-09T18:59:39.466Z,5.95
2023-07-09T19:04:41.968Z,5.13
2023-07-09T19:09:45.287Z,3.50
2023-07-09T19:14:47.703Z,4.07
2023-07-09T19:19:50.597Z,3.70
2023-07-09T19:24:53.065Z,3.72
2023-07-09T19:29:55.511Z,3.70
2023-07-09T19:34:57.961Z,4.30
2023-07-09T19:40:00.396Z,4.47
2023-07-09T19:45:02.900Z,4.07
2023-07-09T19:50:17.129Z,3.38
2023-07-09T19:55:28.698Z,3.67
2023-07-09T20:00:31.510Z,3.15
2023-07-09T20:05:34.006Z,3.55
2023-07-09T20:10:36.503Z,3.92
2023-07-09T20:15:39.524Z,3.95
2023-07-09T20:21:04.343Z,4.53
2023-07-09T20:26:07.192Z,5.53
2023-07-09T20:31:20.576Z,6.13
2023-07-09T20:36:23.257Z,5.20
2023-07-09T20:41:29.201Z,5.35
2023-07-09T20:46:31.730Z,5.28
2023-07-09T20:51:34.391Z,5.60
2023-07-09T20:56:37.335Z,4.93
2023-07-09T21:01:39.924Z,5.40
2023-07-09T21:06:43.001Z,6.78
2023-07-09T21:11:47.000Z,5.93
2023-07-09T21:16:50.472Z,5.35
2023-07-09T21:21:52.980Z,5.50
2023-07-09T21:26:57.583Z,10.77
2023-07-09T21:32:06.424Z,9.85
2023-07-09T21:37:18.176Z,9.23
2023-07-09T21:42:20.622Z,11.35
2023-07-09T21:47:24.500Z,14.65
2023-07-09T21:52:27.042Z,27.63
2023-07-09T21:57:29.745Z,31.67
2023-07-09T22:02:32.492Z,27.42
2023-07-09T22:07:35.034Z,16.00
2023-07-09T22:12:37.651Z,12.02
2023-07-09T22:17:40.137Z,11.23
2023-07-09T22:22:42.692Z,10.13
2023-07-09T22:27:45.838Z,10.48
2023-07-09T22:32:54.924Z,11.13
2023-07-09T22:37:58.540Z,9.77
2023-07-09T22:43:01.069Z,9.88
2023-07-09T22:48:05.966Z,9.38
2023-07-09T22:53:18.040Z,9.82
2023-07-09T22:58:22.032Z,10.95
2023-07-09T23:03:34.712Z,12.75
2023-07-09T23:08:37.238Z,10.35
2023-07-09T23:13:39.720Z,8.43
2023-07-09T23:18:48.556Z,7.65
2023-07-09T23:23:58.663Z,9.55
2023-07-09T23:29:01.577Z,9.20
2023-07-09T23:34:10.791Z,7.50
2023-07-09T23:39:13.976Z,6.70
2023-07-09T23:44:22.570Z,7.63
2023-07-09T23:49:27.744Z,7.30
2023-07-09T23:54:30.232Z,6.83
2023-07-09T23:59:35.911Z,7.00
